sensor_id;sensor_type;location;lat;lon;timestamp;pressure;altitude;pressure_sealevel;temperature;humidity
48872;BME280;36154;51.674;7.824;2023-01-27T00:02:17;101497.56;;;19.59;44.69
48872;BME280;36154;51.674;7.824;2023-01-27T00:04:42;101497.59;;;19.57;44.92
48872;BME280;36154;51.674;7.824;2023-01-27T00:07:08;101507.91;;;19.57;44.71
48872;BME280;36154;51.674;7.824;2023-01-27T00:09:33;101506.22;;;19.56;44.73
48872;BME280;36154;51.674;7.824;2023-01-27T00:11:58;101510.50;;;19.57;44.62
48872;BME280;36154;51.674;7.824;2023-01-27T00:14:44;101520.00;;;19.55;44.65
48872;BME280;36154;51.674;7.824;2023-01-27T00:17:10;101520.00;;;19.55;44.95
48872;BME280;36154;51.674;7.824;2023-01-27T00:19:35;101514.84;;;19.55;44.80
48872;BME280;36154;51.674;7.824;2023-01-27T00:22:03;101514.84;;;19.55;44.62
48872;BME280;36154;51.674;7.824;2023-01-27T00:24:47;101518.34;;;19.53;44.80
48872;BME280;36154;51.674;7.824;2023-01-27T00:27:12;101515.69;;;19.54;44.82
48872;BME280;36154;51.674;7.824;2023-01-27T00:29:38;101515.69;;;19.54;44.62
48872;BME280;36154;51.674;7.824;2023-01-27T00:32:04;101514.00;;;19.53;44.87
48872;BME280;36154;51.674;7.824;2023-01-27T00:34:48;101519.19;;;19.53;44.75
48872;BME280;36154;51.674;7.824;2023-01-27T00:37:13;101524.38;;;19.52;44.82
48872;BME280;36154;51.674;7.824;2023-01-27T00:39:41;101523.53;;;19.51;44.72
48872;BME280;36154;51.674;7.824;2023-01-27T00:42:07;101534.69;;;19.52;44.73
48872;BME280;36154;51.674;7.824;2023-01-27T00:44:32;101529.53;;;19.50;44.77
48872;BME280;36154;51.674;7.824;2023-01-27T00:46:57;101530.41;;;19.49;44.84
48872;BME280;36154;51.674;7.824;2023-01-27T00:49:23;101526.13;;;19.50;44.81
48872;BME280;36154;51.674;7.824;2023-01-27T00:51:49;101521.78;;;19.50;44.93
48872;BME280;36154;51.674;7.824;2023-01-27T00:54:14;101529.53;;;19.50;44.75
48872;BME280;36154;51.674;7.824;2023-01-27T00:56:40;101526.97;;;19.50;44.72
48872;BME280;36154;51.674;7.824;2023-01-27T00:59:05;101529.56;;;19.49;44.69
48872;BME280;36154;51.674;7.824;2023-01-27T01:01:31;101526.97;;;19.50;44.81
48872;BME280;36154;51.674;7.824;2023-01-27T01:03:56;101528.72;;;19.48;44.83
48872;BME280;36154;51.674;7.824;2023-01-27T01:06:25;101517.47;;;19.49;44.67
48872;BME280;36154;51.674;7.824;2023-01-27T01:08:51;101530.41;;;19.49;44.74
48872;BME280;36154;51.674;7.824;2023-01-27T01:11:17;101523.53;;;19.48;44.91
48872;BME280;36154;51.674;7.824;2023-01-27T01:13:43;101526.13;;;19.48;44.70
48872;BME280;36154;51.674;7.824;2023-01-27T01:16:11;101529.56;;;19.49;44.87
48872;BME280;36154;51.674;7.824;2023-01-27T01:18:37;101530.41;;;19.48;44.69
48872;BME280;36154;51.674;7.824;2023-01-27T01:21:03;101525.28;;;19.46;44.78
48872;BME280;36154;51.674;7.824;2023-01-27T01:23:30;101528.72;;;19.48;45.07
48872;BME280;36154;51.674;7.824;2023-01-27T01:25:56;101529.56;;;19.47;44.81
48872;BME280;36154;51.674;7.824;2023-01-27T01:28:22;101527.00;;;19.47;44.74
48872;BME280;36154;51.674;7.824;2023-01-27T01:30:48;101530.47;;;19.46;44.85
48872;BME280;36154;51.674;7.824;2023-01-27T01:33:14;101529.59;;;19.46;44.68
48872;BME280;36154;51.674;7.824;2023-01-27T01:35:39;101534.75;;;19.46;44.86
48872;BME280;36154;51.674;7.824;2023-01-27T01:38:05;101530.47;;;19.46;44.74
48872;BME280;36154;51.674;7.824;2023-01-27T01:40:31;101539.06;;;19.45;44.54
48872;BME280;36154;51.674;7.824;2023-01-27T01:42:59;101537.34;;;19.46;44.58
48872;BME280;36154;51.674;7.824;2023-01-27T01:48:21;101542.53;;;19.44;44.65
48872;BME280;36154;51.674;7.824;2023-01-27T01:50:59;101535.66;;;19.43;44.70
48872;BME280;36154;51.674;7.824;2023-01-27T01:53:31;101542.53;;;19.43;44.69
48872;BME280;36154;51.674;7.824;2023-01-27T01:56:01;101539.94;;;19.43;44.89
48872;BME280;36154;51.674;7.824;2023-01-27T01:58:29;101533.94;;;19.42;44.86
48872;BME280;36154;51.674;7.824;2023-01-27T02:00:54;101533.94;;;19.42;44.56
48872;BME280;36154;51.674;7.824;2023-01-27T02:03:22;101538.25;;;19.43;44.79
48872;BME280;36154;51.674;7.824;2023-01-27T02:05:48;101539.09;;;19.42;44.81
48872;BME280;36154;51.674;7.824;2023-01-27T02:08:17;101547.72;;;19.41;44.71
48872;BME280;36154;51.674;7.824;2023-01-27T02:10:44;101541.69;;;19.41;44.71
48872;BME280;36154;51.674;7.824;2023-01-27T02:13:10;101545.13;;;19.41;44.96
48872;BME280;36154;51.674;7.824;2023-01-27T02:15:36;101541.69;;;19.42;44.63
48872;BME280;36154;51.674;7.824;2023-01-27T02:18:02;101537.38;;;19.41;44.81
48872;BME280;36154;51.674;7.824;2023-01-27T02:20:54;101521.88;;;19.41;44.84
48872;BME280;36154;51.674;7.824;2023-01-27T02:23:29;101525.34;;;19.40;44.93
48872;BME280;36154;51.674;7.824;2023-01-27T02:26:20;101523.63;;;19.39;44.85
48872;BME280;36154;51.674;7.824;2023-01-27T02:28:54;101518.44;;;19.39;44.79
48872;BME280;36154;51.674;7.824;2023-01-27T02:31:20;101533.97;;;19.39;44.74
48872;BME280;36154;51.674;7.824;2023-01-27T02:33:45;101533.97;;;19.39;44.75
48872;BME280;36154;51.674;7.824;2023-01-27T02:36:17;101533.13;;;19.38;44.85
48872;BME280;36154;51.674;7.824;2023-01-27T02:38:51;101533.13;;;19.38;44.61
48872;BME280;36154;51.674;7.824;2023-01-27T02:41:39;101533.97;;;19.37;44.91
48872;BME280;36154;51.674;7.824;2023-01-27T02:44:06;101535.72;;;19.37;44.83
48872;BME280;36154;51.674;7.824;2023-01-27T02:46:33;101542.59;;;19.38;44.90
48872;BME280;36154;51.674;7.824;2023-01-27T02:48:58;101531.38;;;19.37;44.99
48872;BME280;36154;51.674;7.824;2023-01-27T02:51:24;101533.97;;;19.37;44.82
48872;BME280;36154;51.674;7.824;2023-01-27T02:53:49;101533.97;;;19.36;44.78
48872;BME280;36154;51.674;7.824;2023-01-27T02:56:14;101531.38;;;19.37;44.92
48872;BME280;36154;51.674;7.824;2023-01-27T02:58:39;101527.09;;;19.38;44.70
48872;BME280;36154;51.674;7.824;2023-01-27T03:01:06;101522.78;;;19.37;44.69
48872;BME280;36154;51.674;7.824;2023-01-27T03:03:31;101523.66;;;19.36;44.82
48872;BME280;36154;51.674;7.824;2023-01-27T03:05:56;101522.78;;;19.37;44.74
48872;BME280;36154;51.674;7.824;2023-01-27T03:08:22;101528.81;;;19.36;44.72
48872;BME280;36154;51.674;7.824;2023-01-27T03:10:52;101523.66;;;19.36;44.68
48872;BME280;36154;51.674;7.824;2023-01-27T03:13:24;101531.41;;;19.36;44.86
48872;BME280;36154;51.674;7.824;2023-01-27T03:15:50;101528.81;;;19.36;44.84
48872;BME280;36154;51.674;7.824;2023-01-27T03:18:35;101521.94;;;19.35;44.89
48872;BME280;36154;51.674;7.824;2023-01-27T03:21:02;101529.72;;;19.35;44.78
48872;BME280;36154;51.674;7.824;2023-01-27T03:23:28;101535.72;;;19.35;44.67
48872;BME280;36154;51.674;7.824;2023-01-27T03:25:53;101533.97;;;19.36;44.77
48872;BME280;36154;51.674;7.824;2023-01-27T03:28:19;101540.03;;;19.35;44.79
48872;BME280;36154;51.674;7.824;2023-01-27T03:30:44;101526.25;;;19.34;44.83
48872;BME280;36154;51.674;7.824;2023-01-27T03:33:09;101532.28;;;19.35;44.64
48872;BME280;36154;51.674;7.824;2023-01-27T03:35:38;101531.44;;;19.33;44.83
48872;BME280;36154;51.674;7.824;2023-01-27T03:38:14;101517.66;;;19.34;44.62
48872;BME280;36154;51.674;7.824;2023-01-27T03:40:59;101522.81;;;19.32;44.63
48872;BME280;36154;51.674;7.824;2023-01-27T03:43:43;101528.00;;;19.32;44.96
48872;BME280;36154;51.674;7.824;2023-01-27T03:46:27;101520.25;;;19.31;44.80
48872;BME280;36154;51.674;7.824;2023-01-27T03:48:54;101527.16;;;19.29;44.72
48872;BME280;36154;51.674;7.824;2023-01-27T03:51:22;101532.34;;;19.29;44.80
48872;BME280;36154;51.674;7.824;2023-01-27T03:53:48;101534.06;;;19.30;44.68
48872;BME280;36154;51.674;7.824;2023-01-27T03:56:14;101535.75;;;19.29;44.79
48872;BME280;36154;51.674;7.824;2023-01-27T03:58:40;101540.06;;;19.30;44.90
48872;BME280;36154;51.674;7.824;2023-01-27T04:01:14;101534.91;;;19.29;44.86
48872;BME280;36154;51.674;7.824;2023-01-27T04:03:39;101547.84;;;19.29;44.82
48872;BME280;36154;51.674;7.824;2023-01-27T04:06:25;101542.66;;;19.30;44.63
48872;BME280;36154;51.674;7.824;2023-01-27T04:09:10;101540.06;;;19.32;44.50
48872;BME280;36154;51.674;7.824;2023-01-27T04:11:36;101538.31;;;19.34;44.75
48872;BME280;36154;51.674;7.824;2023-01-27T04:14:21;101539.16;;;19.36;44.70
48872;BME280;36154;51.674;7.824;2023-01-27T04:16:47;101538.28;;;19.40;44.86
48872;BME280;36154;51.674;7.824;2023-01-27T04:19:13;101533.91;;;19.45;44.72
48872;BME280;36154;51.674;7.824;2023-01-27T04:21:39;101537.31;;;19.49;44.53
48872;BME280;36154;51.674;7.824;2023-01-27T04:24:05;101540.72;;;19.52;44.79
48872;BME280;36154;51.674;7.824;2023-01-27T04:26:41;101539.84;;;19.55;44.72
48872;BME280;36154;51.674;7.824;2023-01-27T04:29:08;101547.53;;;19.61;44.66
48872;BME280;36154;51.674;7.824;2023-01-27T04:31:33;101546.69;;;19.64;44.57
48872;BME280;36154;51.674;7.824;2023-01-27T04:33:59;101550.94;;;19.68;44.72
48872;BME280;36154;51.674;7.824;2023-01-27T04:36:24;101545.72;;;19.71;44.53
48872;BME280;36154;51.674;7.824;2023-01-27T04:38:49;101546.56;;;19.73;44.71
48872;BME280;36154;51.674;7.824;2023-01-27T04:41:15;101555.16;;;19.77;44.54
48872;BME280;36154;51.674;7.824;2023-01-27T04:43:40;101556.00;;;19.80;44.59
48872;BME280;36154;51.674;7.824;2023-01-27T04:46:05;101556.81;;;19.82;44.47
48872;BME280;36154;51.674;7.824;2023-01-27T04:48:31;101557.66;;;19.84;44.47
48872;BME280;36154;51.674;7.824;2023-01-27T04:50:56;101555.91;;;19.86;44.54
48872;BME280;36154;51.674;7.824;2023-01-27T04:53:21;101565.38;;;19.89;44.43
48872;BME280;36154;51.674;7.824;2023-01-27T04:55:48;101563.63;;;19.91;44.29
48872;BME280;36154;51.674;7.824;2023-01-27T04:58:14;101572.19;;;19.94;44.42
48872;BME280;36154;51.674;7.824;2023-01-27T05:00:41;101568.75;;;19.96;44.33
48872;BME280;36154;51.674;7.824;2023-01-27T05:03:06;101560.09;;;19.98;43.90
48872;BME280;36154;51.674;7.824;2023-01-27T05:05:33;101573.00;;;20.00;44.25
48872;BME280;36154;51.674;7.824;2023-01-27T05:08:03;101566.13;;;20.00;44.32
48872;BME280;36154;51.674;7.824;2023-01-27T05:10:29;101572.97;;;20.03;44.21
48872;BME280;36154;51.674;7.824;2023-01-27T05:12:54;101572.94;;;20.04;44.39
48872;BME280;36154;51.674;7.824;2023-01-27T05:15:19;101578.94;;;20.06;44.31
48872;BME280;36154;51.674;7.824;2023-01-27T05:17:44;101576.34;;;20.08;44.38
48872;BME280;36154;51.674;7.824;2023-01-27T05:20:10;101562.56;;;20.09;44.37
48872;BME280;36154;51.674;7.824;2023-01-27T05:22:35;101562.56;;;20.09;44.30
48872;BME280;36154;51.674;7.824;2023-01-27T05:25:01;101573.72;;;20.11;44.21
48872;BME280;36154;51.674;7.824;2023-01-27T05:27:26;101578.03;;;20.12;44.25
48872;BME280;36154;51.674;7.824;2023-01-27T05:29:51;101581.47;;;20.12;44.19
48872;BME280;36154;51.674;7.824;2023-01-27T05:32:16;101584.06;;;20.14;43.75
48872;BME280;36154;51.674;7.824;2023-01-27T05:34:42;101580.59;;;20.15;44.29
48872;BME280;36154;51.674;7.824;2023-01-27T05:37:07;101577.13;;;20.16;44.22
48872;BME280;36154;51.674;7.824;2023-01-27T05:39:32;101577.13;;;20.16;44.31
48872;BME280;36154;51.674;7.824;2023-01-27T05:41:58;101580.59;;;20.17;44.16
48872;BME280;36154;51.674;7.824;2023-01-27T05:44:23;101584.88;;;20.16;44.24
48872;BME280;36154;51.674;7.824;2023-01-27T05:46:48;101586.59;;;20.17;44.25
48872;BME280;36154;51.674;7.824;2023-01-27T05:49:13;101590.88;;;20.18;44.05
48872;BME280;36154;51.674;7.824;2023-01-27T05:51:39;101594.38;;;20.17;44.21
48872;BME280;36154;51.674;7.824;2023-01-27T05:54:04;101595.22;;;20.16;44.10
48872;BME280;36154;51.674;7.824;2023-01-27T05:56:30;101595.22;;;20.16;44.09
48872;BME280;36154;51.674;7.824;2023-01-27T05:58:56;101604.72;;;20.16;44.18
48872;BME280;36154;51.674;7.824;2023-01-27T06:01:30;101593.53;;;20.15;43.95
48872;BME280;36154;51.674;7.824;2023-01-27T06:03:56;101603.88;;;20.15;44.06
48872;BME280;36154;51.674;7.824;2023-01-27T06:06:23;101602.16;;;20.14;44.08
48872;BME280;36154;51.674;7.824;2023-01-27T06:08:49;101591.84;;;20.11;44.20
48872;BME280;36154;51.674;7.824;2023-01-27T06:11:16;101591.81;;;20.12;44.40
48872;BME280;36154;51.674;7.824;2023-01-27T06:13:42;101598.75;;;20.12;44.31
48872;BME280;36154;51.674;7.824;2023-01-27T06:16:09;101598.75;;;20.12;44.32
48872;BME280;36154;51.674;7.824;2023-01-27T06:18:35;101601.34;;;20.10;44.39
48872;BME280;36154;51.674;7.824;2023-01-27T06:21:03;101607.38;;;20.11;44.46
48872;BME280;36154;51.674;7.824;2023-01-27T06:23:28;101603.09;;;20.10;44.70
48872;BME280;36154;51.674;7.824;2023-01-27T06:25:55;101609.09;;;20.10;44.82
48872;BME280;36154;51.674;7.824;2023-01-27T06:28:23;101614.28;;;20.09;44.82
48872;BME280;36154;51.674;7.824;2023-01-27T06:30:48;101612.56;;;20.08;44.67
48872;BME280;36154;51.674;7.824;2023-01-27T06:33:15;101617.81;;;20.05;45.00
48872;BME280;36154;51.674;7.824;2023-01-27T06:35:40;101625.53;;;20.06;44.88
48872;BME280;36154;51.674;7.824;2023-01-27T06:38:07;101617.81;;;20.05;44.70
48872;BME280;36154;51.674;7.824;2023-01-27T06:40:34;101621.25;;;20.04;44.92
48872;BME280;36154;51.674;7.824;2023-01-27T06:43:02;101624.69;;;20.03;44.78
48872;BME280;36154;51.674;7.824;2023-01-27T06:45:27;101623.00;;;20.02;44.79
48872;BME280;36154;51.674;7.824;2023-01-27T06:47:53;101626.47;;;20.01;44.92
48872;BME280;36154;51.674;7.824;2023-01-27T06:50:22;101629.91;;;20.00;44.94
48872;BME280;36154;51.674;7.824;2023-01-27T06:52:48;101634.25;;;19.98;44.88
48872;BME280;36154;51.674;7.824;2023-01-27T06:55:14;101636.00;;;19.96;44.96
48872;BME280;36154;51.674;7.824;2023-01-27T06:57:39;101634.28;;;19.94;45.01
48872;BME280;36154;51.674;7.824;2023-01-27T07:00:05;101633.44;;;19.92;44.76
48872;BME280;36154;51.674;7.824;2023-01-27T07:02:31;101636.91;;;19.91;45.17
48872;BME280;36154;51.674;7.824;2023-01-27T07:04:56;101644.69;;;19.91;44.75
48872;BME280;36154;51.674;7.824;2023-01-27T07:07:21;101650.72;;;19.90;44.84
48872;BME280;36154;51.674;7.824;2023-01-27T07:09:47;101652.44;;;19.91;44.77
48872;BME280;36154;51.674;7.824;2023-01-27T07:12:12;101638.59;;;19.92;44.85
48872;BME280;36154;51.674;7.824;2023-01-27T07:14:38;101643.75;;;19.96;44.96
48872;BME280;36154;51.674;7.824;2023-01-27T07:17:03;101650.59;;;20.00;44.90
48872;BME280;36154;51.674;7.824;2023-01-27T07:19:28;101642.81;;;20.01;45.03
48872;BME280;36154;51.674;7.824;2023-01-27T07:21:53;101641.09;;;20.03;45.05
48872;BME280;36154;51.674;7.824;2023-01-27T07:24:19;101647.97;;;20.06;44.93
48872;BME280;36154;51.674;7.824;2023-01-27T07:26:44;101653.97;;;20.08;44.97
48872;BME280;36154;51.674;7.824;2023-01-27T07:29:12;101650.53;;;20.09;44.89
48872;BME280;36154;51.674;7.824;2023-01-27T07:31:37;101657.41;;;20.10;44.94
48872;BME280;36154;51.674;7.824;2023-01-27T07:34:02;101663.44;;;20.12;44.81
48872;BME280;36154;51.674;7.824;2023-01-27T07:36:27;101658.22;;;20.15;44.79
48872;BME280;36154;51.674;7.824;2023-01-27T07:38:53;101661.63;;;20.19;45.02
48872;BME280;36154;51.674;7.824;2023-01-27T07:41:18;101671.06;;;20.21;44.82
48872;BME280;36154;51.674;7.824;2023-01-27T07:43:44;101665.91;;;20.21;45.09
48872;BME280;36154;51.674;7.824;2023-01-27T07:46:09;101675.38;;;20.24;44.80
48872;BME280;36154;51.674;7.824;2023-01-27T07:48:34;101669.31;;;20.25;44.83
48872;BME280;36154;51.674;7.824;2023-01-27T07:50:59;101675.34;;;20.25;44.69
48872;BME280;36154;51.674;7.824;2023-01-27T07:53:25;101677.94;;;20.25;44.68
48872;BME280;36154;51.674;7.824;2023-01-27T07:55:50;101665.88;;;20.24;44.58
48872;BME280;36154;51.674;7.824;2023-01-27T07:58:15;101662.41;;;20.25;44.65
48872;BME280;36154;51.674;7.824;2023-01-27T08:00:41;101667.59;;;20.25;44.48
48872;BME280;36154;51.674;7.824;2023-01-27T08:03:06;101671.03;;;20.24;44.61
48872;BME280;36154;51.674;7.824;2023-01-27T08:05:32;101665.88;;;20.24;44.55
48872;BME280;36154;51.674;7.824;2023-01-27T08:07:58;101661.59;;;20.22;44.57
48872;BME280;36154;51.674;7.824;2023-01-27T08:10:27;101667.63;;;20.22;44.64
48872;BME280;36154;51.674;7.824;2023-01-27T08:12:52;101671.03;;;20.24;44.32
48872;BME280;36154;51.674;7.824;2023-01-27T08:15:18;101667.59;;;20.24;44.58
48872;BME280;36154;51.674;7.824;2023-01-27T08:17:43;101669.34;;;20.23;44.53
48872;BME280;36154;51.674;7.824;2023-01-27T08:20:09;101676.22;;;20.24;44.42
48872;BME280;36154;51.674;7.824;2023-01-27T08:22:35;101682.25;;;20.25;44.33
48872;BME280;36154;51.674;7.824;2023-01-27T08:25:00;101677.97;;;20.22;44.52
48872;BME280;36154;51.674;7.824;2023-01-27T08:27:25;101684.88;;;20.23;44.58
48872;BME280;36154;51.674;7.824;2023-01-27T08:29:50;101679.72;;;20.20;44.37
48872;BME280;36154;51.674;7.824;2023-01-27T08:32:17;101687.50;;;20.20;44.37
48872;BME280;36154;51.674;7.824;2023-01-27T08:34:42;101686.63;;;20.20;44.43
48872;BME280;36154;51.674;7.824;2023-01-27T08:37:07;101686.63;;;20.18;44.56
48872;BME280;36154;51.674;7.824;2023-01-27T08:39:33;101688.38;;;20.16;44.47
48872;BME280;36154;51.674;7.824;2023-01-27T08:41:58;101694.44;;;20.15;44.46
48872;BME280;36154;51.674;7.824;2023-01-27T08:44:24;101692.72;;;20.14;44.48
48872;BME280;36154;51.674;7.824;2023-01-27T08:46:52;101702.25;;;20.12;44.57
48872;BME280;36154;51.674;7.824;2023-01-27T08:49:17;101709.09;;;20.13;44.42
48872;BME280;36154;51.674;7.824;2023-01-27T08:51:42;101698.81;;;20.10;44.40
48872;BME280;36154;51.674;7.824;2023-01-27T08:54:08;101699.69;;;20.09;44.38
48872;BME280;36154;51.674;7.824;2023-01-27T08:56:34;101699.69;;;20.07;44.57
48872;BME280;36154;51.674;7.824;2023-01-27T08:58:59;101704.88;;;20.06;44.43
48872;BME280;36154;51.674;7.824;2023-01-27T09:01:25;101699.72;;;20.04;44.45
48872;BME280;36154;51.674;7.824;2023-01-27T09:03:51;101706.63;;;20.04;44.55
48872;BME280;36154;51.674;7.824;2023-01-27T09:06:16;101712.66;;;20.03;44.63
48872;BME280;36154;51.674;7.824;2023-01-27T09:08:42;101714.41;;;20.01;44.80
48872;BME280;36154;51.674;7.824;2023-01-27T09:11:13;101719.59;;;20.01;44.50
48872;BME280;36154;51.674;7.824;2023-01-27T09:13:38;101717.84;;;20.00;44.54
48872;BME280;36154;51.674;7.824;2023-01-27T09:16:04;101717.91;;;19.98;44.67
48872;BME280;36154;51.674;7.824;2023-01-27T09:18:29;101729.94;;;19.98;44.65
48872;BME280;36154;51.674;7.824;2023-01-27T09:20:54;101729.94;;;19.98;44.68
48872;BME280;36154;51.674;7.824;2023-01-27T09:23:20;101730.84;;;19.95;44.49
48872;BME280;36154;51.674;7.824;2023-01-27T09:25:45;101734.31;;;19.94;44.58
48872;BME280;36154;51.674;7.824;2023-01-27T09:28:10;101730.00;;;19.93;44.47
48872;BME280;36154;51.674;7.824;2023-01-27T09:30:41;101732.56;;;19.93;44.45
48872;BME280;36154;51.674;7.824;2023-01-27T09:33:07;101735.19;;;19.91;44.44
48872;BME280;36154;51.674;7.824;2023-01-27T09:35:37;101740.34;;;19.93;44.54
48872;BME280;36154;51.674;7.824;2023-01-27T09:38:04;101745.50;;;19.94;44.52
48872;BME280;36154;51.674;7.824;2023-01-27T09:40:47;101744.63;;;19.97;44.72
48872;BME280;36154;51.674;7.824;2023-01-27T09:43:37;101738.56;;;20.00;44.72
48872;BME280;36154;51.674;7.824;2023-01-27T09:46:41;101747.19;;;20.02;44.77
48872;BME280;36154;51.674;7.824;2023-01-27T09:49:41;101746.28;;;20.04;44.75
48872;BME280;36154;51.674;7.824;2023-01-27T09:52:46;101749.69;;;20.06;44.61
48872;BME280;36154;51.674;7.824;2023-01-27T09:55:35;101752.28;;;20.08;44.73
48872;BME280;36154;51.674;7.824;2023-01-27T09:58:34;101750.59;;;20.07;44.56
48872;BME280;36154;51.674;7.824;2023-01-27T10:01:32;101751.41;;;20.12;44.69
48872;BME280;36154;51.674;7.824;2023-01-27T10:07:17;101754.81;;;20.16;44.70
48872;BME280;36154;51.674;7.824;2023-01-27T10:09:55;101762.56;;;20.17;44.81
48872;BME280;36154;51.674;7.824;2023-01-27T10:15:03;101757.38;;;20.20;44.68
48872;BME280;36154;51.674;7.824;2023-01-27T10:17:57;101760.78;;;20.22;44.52
48872;BME280;36154;51.674;7.824;2023-01-27T10:26:22;101762.50;;;20.23;44.42
48872;BME280;36154;51.674;7.824;2023-01-27T10:28:50;101755.63;;;20.22;44.33
48872;BME280;36154;51.674;7.824;2023-01-27T10:31:24;101761.63;;;20.24;44.34
48872;BME280;36154;51.674;7.824;2023-01-27T10:33:55;101755.63;;;20.22;44.10
48872;BME280;36154;51.674;7.824;2023-01-27T10:36:30;101760.78;;;20.22;43.52
48872;BME280;36154;51.674;7.824;2023-01-27T10:41:58;101757.38;;;20.20;42.88
48872;BME280;36154;51.674;7.824;2023-01-27T10:47:53;101758.22;;;20.19;43.54
48872;BME280;36154;51.674;7.824;2023-01-27T10:50:28;101760.81;;;20.19;43.77
48872;BME280;36154;51.674;7.824;2023-01-27T10:53:11;101757.38;;;20.17;43.78
48872;BME280;36154;51.674;7.824;2023-01-27T10:55:39;101754.78;;;20.17;43.93
48872;BME280;36154;51.674;7.824;2023-01-27T10:58:17;101749.63;;;20.16;43.92
48872;BME280;36154;51.674;7.824;2023-01-27T11:00:52;101753.09;;;20.15;43.79
48872;BME280;36154;51.674;7.824;2023-01-27T11:03:30;101752.22;;;20.14;43.91
48872;BME280;36154;51.674;7.824;2023-01-27T11:05:59;101753.97;;;20.13;44.16
48872;BME280;36154;51.674;7.824;2023-01-27T11:08:32;101750.50;;;20.13;43.99
48872;BME280;36154;51.674;7.824;2023-01-27T11:11:02;101748.81;;;20.12;43.97
48872;BME280;36154;51.674;7.824;2023-01-27T11:13:48;101740.22;;;20.10;44.07
48872;BME280;36154;51.674;7.824;2023-01-27T11:16:15;101753.16;;;20.10;43.88
48872;BME280;36154;51.674;7.824;2023-01-27T11:18:41;101755.75;;;20.10;44.10
48872;BME280;36154;51.674;7.824;2023-01-27T11:21:23;101752.28;;;20.08;44.14
48872;BME280;36154;51.674;7.824;2023-01-27T11:23:53;101747.97;;;20.08;43.98
48872;BME280;36154;51.674;7.824;2023-01-27T11:26:42;101760.06;;;20.06;43.88
48872;BME280;36154;51.674;7.824;2023-01-27T11:29:23;101757.50;;;20.05;43.98
48872;BME280;36154;51.674;7.824;2023-01-27T11:32:02;101753.19;;;20.04;44.00
48872;BME280;36154;51.674;7.824;2023-01-27T11:36:57;101747.19;;;20.02;44.25
48872;BME280;36154;51.674;7.824;2023-01-27T11:39:22;101751.47;;;20.01;43.87
48872;BME280;36154;51.674;7.824;2023-01-27T11:41:53;101743.72;;;20.00;44.11
48872;BME280;36154;51.674;7.824;2023-01-27T11:44:23;101742.88;;;19.99;44.05
48872;BME280;36154;51.674;7.824;2023-01-27T11:46:51;101754.06;;;20.00;44.09
48872;BME280;36154;51.674;7.824;2023-01-27T11:49:22;101752.38;;;19.99;44.02
48872;BME280;36154;51.674;7.824;2023-01-27T11:51:48;101757.56;;;19.99;44.22
48872;BME280;36154;51.674;7.824;2023-01-27T11:56:40;101749.81;;;19.97;43.98
48872;BME280;36154;51.674;7.824;2023-01-27T11:59:13;101742.91;;;19.94;43.83
48872;BME280;36154;51.674;7.824;2023-01-27T12:04:19;101737.75;;;19.93;44.09
48872;BME280;36154;51.674;7.824;2023-01-27T12:06:55;101755.00;;;19.92;44.20
48872;BME280;36154;51.674;7.824;2023-01-27T12:09:35;101741.22;;;19.92;44.10
48872;BME280;36154;51.674;7.824;2023-01-27T12:14:38;101738.66;;;19.90;44.04
48872;BME280;36154;51.674;7.824;2023-01-27T12:17:05;101748.16;;;19.90;44.18
48872;BME280;36154;51.674;7.824;2023-01-27T12:19:39;101733.50;;;19.84;43.98
48872;BME280;36154;51.674;7.824;2023-01-27T12:22:14;101729.19;;;19.86;44.12
48872;BME280;36154;51.674;7.824;2023-01-27T12:24:47;101738.63;;;19.93;44.29
48872;BME280;36154;51.674;7.824;2023-01-27T12:27:22;101744.63;;;19.96;44.22
48872;BME280;36154;51.674;7.824;2023-01-27T12:29:52;101736.09;;;19.86;40.55
48872;BME280;36154;51.674;7.824;2023-01-27T12:32:33;101733.78;;;19.44;38.24
48872;BME280;36154;51.674;7.824;2023-01-27T12:35:00;101742.56;;;19.15;38.47
48872;BME280;36154;51.674;7.824;2023-01-27T12:37:30;101725.38;;;19.11;38.72
48872;BME280;36154;51.674;7.824;2023-01-27T12:40:02;101730.50;;;19.17;39.37
48872;BME280;36154;51.674;7.824;2023-01-27T12:42:40;101727.03;;;19.25;39.89
48872;BME280;36154;51.674;7.824;2023-01-27T12:45:25;101728.69;;;19.30;40.12
48872;BME280;36154;51.674;7.824;2023-01-27T12:50:33;101732.09;;;19.43;40.75
48872;BME280;36154;51.674;7.824;2023-01-27T12:53:03;101731.16;;;19.49;41.06
48872;BME280;36154;51.674;7.824;2023-01-27T12:55:36;101737.16;;;19.54;41.04
48872;BME280;36154;51.674;7.824;2023-01-27T12:58:03;101729.38;;;19.60;41.40
48872;BME280;36154;51.674;7.824;2023-01-27T13:00:29;101734.56;;;19.65;41.25
48872;BME280;36154;51.674;7.824;2023-01-27T13:03:04;101724.16;;;19.69;41.47
48872;BME280;36154;51.674;7.824;2023-01-27T13:05:38;101728.44;;;19.73;41.68
48872;BME280;36154;51.674;7.824;2023-01-27T13:08:12;101728.41;;;19.78;41.65
48872;BME280;36154;51.674;7.824;2023-01-27T13:10:38;101724.91;;;19.82;41.64
48872;BME280;36154;51.674;7.824;2023-01-27T13:13:04;101729.22;;;19.85;41.69
48872;BME280;36154;51.674;7.824;2023-01-27T13:15:30;101728.31;;;19.90;41.57
48872;BME280;36154;51.674;7.824;2023-01-27T13:18:10;101731.72;;;19.96;41.81
48872;BME280;36154;51.674;7.824;2023-01-27T13:20:41;101723.94;;;19.97;41.67
48872;BME280;36154;51.674;7.824;2023-01-27T13:23:20;101729.94;;;20.01;41.80
48872;BME280;36154;51.674;7.824;2023-01-27T13:28:47;101733.34;;;20.06;42.08
48872;BME280;36154;51.674;7.824;2023-01-27T13:41:47;101741.06;;;20.10;42.13
48872;BME280;36154;51.674;7.824;2023-01-27T13:44:44;101741.06;;;20.10;42.14
48872;BME280;36154;51.674;7.824;2023-01-27T13:47:19;101745.38;;;20.10;42.20
48872;BME280;36154;51.674;7.824;2023-01-27T13:49:51;101740.22;;;20.10;42.14